createdAt,value
2022-09-16T00:00:33.670Z,26.70
2022-09-16T00:03:01.776Z,26.70
2022-09-16T00:05:29.661Z,26.70
2022-09-16T00:07:57.356Z,26.70
2022-09-16T00:10:25.394Z,26.60
2022-09-16T00:12:53.064Z,26.60
2022-09-16T00:15:21.106Z,26.60
2022-09-16T00:17:49.577Z,26.60
2022-09-16T00:20:17.258Z,26.60
2022-09-16T00:22:45.109Z,26.60
2022-09-16T00:25:13.079Z,26.70
2022-09-16T00:27:40.747Z,26.60
2022-09-16T00:30:08.741Z,26.60
2022-09-16T00:32:36.725Z,26.60
2022-09-16T00:35:04.485Z,26.60
2022-09-16T00:37:33.027Z,26.60
2022-09-16T00:40:01.122Z,26.60
2022-09-16T00:42:28.871Z,26.60
2022-09-16T00:45:13.544Z,26.60
2022-09-16T00:47:44.058Z,26.60
2022-09-16T00:50:16.984Z,26.60
2022-09-16T00:52:45.417Z,26.60
2022-09-16T00:55:16.215Z,26.60
2022-09-16T00:57:44.963Z,26.60
2022-09-16T01:00:14.193Z,26.60
2022-09-16T01:02:42.778Z,26.50
2022-09-16T01:05:12.527Z,26.50
2022-09-16T01:07:45.301Z,26.50
2022-09-16T01:10:15.004Z,26.50
2022-09-16T01:12:44.216Z,26.50
2022-09-16T01:15:12.712Z,26.50
2022-09-16T01:17:40.351Z,26.50
2022-09-16T01:20:08.316Z,26.50
2022-09-16T01:22:46.317Z,26.50
2022-09-16T01:25:14.518Z,26.50
2022-09-16T01:27:48.187Z,26.50
2022-09-16T01:30:18.927Z,26.40
2022-09-16T01:32:55.878Z,26.50
2022-09-16T01:35:56.158Z,26.50
2022-09-16T01:38:38.838Z,26.40
2022-09-16T01:41:15.788Z,26.40
2022-09-16T01:43:46.460Z,26.40
2022-09-16T01:46:33.345Z,26.40
2022-09-16T01:49:05.176Z,26.40
2022-09-16T01:51:46.853Z,26.40
2022-09-16T01:54:21.117Z,26.40
2022-09-16T01:56:54.019Z,26.40
2022-09-16T01:59:25.271Z,26.40
2022-09-16T02:02:11.833Z,26.40
2022-09-16T02:04:49.573Z,26.30
2022-09-16T02:07:19.190Z,26.30
2022-09-16T02:09:50.434Z,26.30
2022-09-16T02:12:22.001Z,26.30
2022-09-16T02:14:51.081Z,26.30
2022-09-16T02:17:23.592Z,26.30
2022-09-16T02:20:03.300Z,26.30
2022-09-16T02:22:39.548Z,26.30
2022-09-16T02:25:08.793Z,26.30
2022-09-16T02:27:38.301Z,26.30
2022-09-16T02:30:07.391Z,26.30
2022-09-16T02:32:37.547Z,26.30
2022-09-16T02:35:06.584Z,26.20
2022-09-16T02:37:36.800Z,26.30
2022-09-16T02:40:08.190Z,26.20
2022-09-16T02:42:35.885Z,26.20
2022-09-16T02:45:05.221Z,26.20
2022-09-16T02:47:48.152Z,26.20
2022-09-16T02:50:18.428Z,26.20
2022-09-16T02:52:49.170Z,26.20
2022-09-16T02:55:19.839Z,26.10
2022-09-16T02:57:47.568Z,26.20
2022-09-16T03:00:15.171Z,26.10
2022-09-16T03:02:43.248Z,26.10
2022-09-16T03:05:10.812Z,26.10
2022-09-16T03:07:39.579Z,26.10
2022-09-16T03:10:09.527Z,26.20
2022-09-16T03:12:45.406Z,26.10
2022-09-16T03:15:16.437Z,26.10
2022-09-16T03:17:52.363Z,26.10
2022-09-16T03:20:29.635Z,26.10
2022-09-16T03:23:06.630Z,26.10
2022-09-16T03:25:34.419Z,26.10
2022-09-16T03:28:08.166Z,26.10
2022-09-16T03:30:39.345Z,26.10
2022-09-16T03:33:10.933Z,26.10
2022-09-16T03:35:42.886Z,26.10
2022-09-16T03:38:12.263Z,26.10
2022-09-16T03:40:41.409Z,26.10
2022-09-16T03:43:16.433Z,26.10
2022-09-16T03:45:44.733Z,26.10
2022-09-16T03:48:13.292Z,26.10
2022-09-16T03:50:41.192Z,26.00
2022-09-16T03:53:09.130Z,26.00
2022-09-16T03:55:36.684Z,26.00
2022-09-16T03:58:04.480Z,26.00
2022-09-16T04:00:33.441Z,26.00
2022-09-16T04:03:01.595Z,26.00
2022-09-16T04:05:29.443Z,26.00
2022-09-16T04:07:57.758Z,26.00
2022-09-16T04:10:25.706Z,26.00
2022-09-16T04:12:56.693Z,26.00
2022-09-16T04:15:24.383Z,26.00
2022-09-16T04:17:52.579Z,26.00
2022-09-16T04:20:20.367Z,26.00
2022-09-16T04:22:47.943Z,26.00
2022-09-16T04:25:15.860Z,25.90
2022-09-16T04:27:43.448Z,26.00
2022-09-16T04:30:11.569Z,25.90
2022-09-16T04:32:39.459Z,26.00
2022-09-16T04:35:07.208Z,26.00
2022-09-16T04:37:34.811Z,26.00
2022-09-16T04:40:04.988Z,25.90
2022-09-16T04:42:33.034Z,25.90
2022-09-16T04:45:00.859Z,25.90
2022-09-16T04:47:29.584Z,25.90
2022-09-16T04:49:57.256Z,25.90
2022-09-16T04:52:24.863Z,25.90
2022-09-16T04:54:52.754Z,25.80
2022-09-16T04:57:20.360Z,25.90
2022-09-16T04:59:47.891Z,25.80
2022-09-16T05:02:16.131Z,25.90
2022-09-16T05:04:43.807Z,25.90
2022-09-16T05:07:11.400Z,25.90
2022-09-16T05:09:39.387Z,25.80
2022-09-16T05:12:07.371Z,25.80
2022-09-16T05:14:34.961Z,25.80
2022-09-16T05:17:02.941Z,25.80
2022-09-16T05:19:31.006Z,25.80
2022-09-16T05:21:58.516Z,25.80
2022-09-16T05:24:26.581Z,25.80
2022-09-16T05:26:54.281Z,25.80
2022-09-16T05:29:22.366Z,25.80
2022-09-16T05:31:50.871Z,25.80
2022-09-16T05:34:20.170Z,25.80
2022-09-16T05:36:48.499Z,25.80
2022-09-16T05:39:25.975Z,25.80
2022-09-16T05:41:58.207Z,25.80
2022-09-16T05:44:26.706Z,25.80
2022-09-16T05:46:54.253Z,25.80
2022-09-16T05:49:22.034Z,25.80
2022-09-16T05:51:50.478Z,25.70
2022-09-16T05:54:23.629Z,25.70
2022-09-16T05:56:51.850Z,25.70
2022-09-16T05:59:19.755Z,25.70
2022-09-16T06:01:47.498Z,25.70
2022-09-16T06:04:15.962Z,25.70
2022-09-16T06:06:45.014Z,25.70
2022-09-16T06:09:17.377Z,25.70
2022-09-16T06:11:47.246Z,25.70
2022-09-16T06:14:15.251Z,25.70
2022-09-16T06:16:43.284Z,25.70
2022-09-16T06:19:13.464Z,25.70
2022-09-16T06:21:41.564Z,25.60
2022-09-16T06:24:09.311Z,25.60
2022-09-16T06:26:38.377Z,25.60
2022-09-16T06:29:06.544Z,25.60
2022-09-16T06:31:34.724Z,25.60
2022-09-16T06:34:02.962Z,25.60
2022-09-16T06:36:35.519Z,25.60
2022-09-16T06:39:04.479Z,25.60
2022-09-16T06:41:33.759Z,25.60
2022-09-16T06:44:01.523Z,25.60
2022-09-16T06:46:29.922Z,25.60
2022-09-16T06:49:00.419Z,25.60
2022-09-16T06:51:32.944Z,25.50
2022-09-16T06:54:02.712Z,25.60
2022-09-16T06:56:30.360Z,25.60
2022-09-16T06:58:58.636Z,25.60
2022-09-16T07:01:28.465Z,25.60
2022-09-16T07:03:57.739Z,25.60
2022-09-16T07:06:45.191Z,25.60
2022-09-16T07:09:15.818Z,25.60
2022-09-16T07:11:43.740Z,25.60
2022-09-16T07:14:11.299Z,25.60
2022-09-16T07:16:38.964Z,25.60
2022-09-16T07:19:07.173Z,25.50
2022-09-16T07:21:35.028Z,25.50
2022-09-16T07:24:03.138Z,25.50
2022-09-16T07:26:32.494Z,25.60
2022-09-16T07:29:01.451Z,25.60
2022-09-16T07:31:30.518Z,25.70
2022-09-16T07:34:03.672Z,25.80
2022-09-16T07:36:35.589Z,25.80
2022-09-16T07:39:04.159Z,25.80
2022-09-16T07:41:36.264Z,25.90
2022-09-16T07:44:05.159Z,25.90
2022-09-16T07:46:34.137Z,25.90
2022-09-16T07:49:02.418Z,25.90
2022-09-16T07:51:30.958Z,26.00
2022-09-16T07:54:00.753Z,25.90
2022-09-16T07:56:29.306Z,26.00
2022-09-16T07:58:57.770Z,26.00
2022-09-16T08:01:26.028Z,25.90
2022-09-16T08:03:54.276Z,25.90
2022-09-16T08:06:23.405Z,25.90
2022-09-16T08:08:54.750Z,25.90
2022-09-16T08:11:22.972Z,26.00
2022-09-16T08:13:51.026Z,26.00
2022-09-16T08:16:19.960Z,25.90
2022-09-16T08:18:49.550Z,25.90
2022-09-16T08:21:21.764Z,25.90
2022-09-16T08:23:49.997Z,25.90
2022-09-16T08:26:18.251Z,25.90
2022-09-16T08:29:07.348Z,25.90
2022-09-16T08:31:34.776Z,26.00
2022-09-16T08:34:02.542Z,26.00
2022-09-16T08:36:30.275Z,26.00
2022-09-16T08:38:58.525Z,26.00
2022-09-16T08:41:32.031Z,26.00
2022-09-16T08:44:20.237Z,26.00
2022-09-16T08:46:55.405Z,26.00
2022-09-16T08:49:46.341Z,26.00
2022-09-16T08:52:17.582Z,26.00
2022-09-16T08:54:47.867Z,26.00
2022-09-16T08:57:18.009Z,26.10
2022-09-16T08:59:49.653Z,26.10
2022-09-16T09:02:27.243Z,26.10
2022-09-16T09:04:55.530Z,26.10
2022-09-16T09:07:32.503Z,26.10
2022-09-16T09:10:00.497Z,26.10
2022-09-16T09:12:28.564Z,26.10
2022-09-16T09:15:12.322Z,26.10
2022-09-16T09:17:49.489Z,26.10
2022-09-16T09:20:36.189Z,26.10
2022-09-16T09:23:10.452Z,26.10
2022-09-16T09:25:41.144Z,26.10
2022-09-16T09:28:17.760Z,26.10
2022-09-16T09:30:50.537Z,26.10
2022-09-16T09:33:48.029Z,26.10
2022-09-16T09:36:51.295Z,26.30
2022-09-16T09:39:31.715Z,26.30
2022-09-16T09:42:03.694Z,26.30
2022-09-16T09:45:02.376Z,26.40
2022-09-16T09:47:39.038Z,26.40
2022-09-16T09:50:30.217Z,26.40
2022-09-16T09:53:06.571Z,26.50
2022-09-16T09:55:35.521Z,26.50
2022-09-16T09:58:11.044Z,26.50
2022-09-16T10:00:39.230Z,26.50
2022-09-16T10:03:10.910Z,26.50
2022-09-16T10:05:38.827Z,26.50
2022-09-16T10:08:14.448Z,26.50
2022-09-16T10:10:47.971Z,26.50
2022-09-16T10:13:17.031Z,26.40
2022-09-16T10:15:44.880Z,26.40
2022-09-16T10:18:24.118Z,26.50
2022-09-16T10:21:21.699Z,26.50
2022-09-16T10:23:56.356Z,26.50
2022-09-16T10:26:25.756Z,26.50
2022-09-16T10:29:04.836Z,26.50
2022-09-16T10:31:37.009Z,26.60
2022-09-16T10:34:16.150Z,26.60
2022-09-16T10:36:44.524Z,26.50
2022-09-16T10:39:23.143Z,26.50
2022-09-16T10:41:51.475Z,26.60
2022-09-16T10:44:25.495Z,26.60
2022-09-16T10:47:08.602Z,26.60
2022-09-16T10:49:36.246Z,26.60
2022-09-16T10:52:15.854Z,26.60
2022-09-16T10:54:43.959Z,26.60
2022-09-16T10:57:27.306Z,26.60
2022-09-16T10:59:59.562Z,26.50
2022-09-16T11:02:40.522Z,26.30
2022-09-16T11:05:26.730Z,26.20
2022-09-16T11:08:29.855Z,26.10
2022-09-16T11:11:00.591Z,26.10
2022-09-16T11:13:40.488Z,26.10
2022-09-16T11:16:17.522Z,26.10
2022-09-16T11:19:12.005Z,26.10
2022-09-16T11:21:42.937Z,26.00
2022-09-16T11:24:19.835Z,26.00
2022-09-16T11:26:50.625Z,25.90
2022-09-16T11:29:28.295Z,25.90
2022-09-16T11:31:56.014Z,26.00
2022-09-16T11:34:33.555Z,26.00
2022-09-16T11:37:10.821Z,26.10
2022-09-16T11:39:42.517Z,26.10
2022-09-16T11:42:16.335Z,26.10
2022-09-16T11:45:02.924Z,26.00
2022-09-16T11:47:40.870Z,26.00
2022-09-16T11:50:21.390Z,25.90
2022-09-16T11:52:49.180Z,25.90
2022-09-16T11:55:36.519Z,25.90
2022-09-16T11:58:19.505Z,25.90
2022-09-16T12:00:48.916Z,26.00
2022-09-16T12:03:19.897Z,25.90
2022-09-16T12:05:53.747Z,26.00
2022-09-16T12:08:36.485Z,26.00
2022-09-16T12:11:24.492Z,25.90
2022-09-16T12:14:05.612Z,25.90
2022-09-16T12:16:37.781Z,25.90
2022-09-16T12:19:11.587Z,25.90
2022-09-16T12:21:47.867Z,25.90
2022-09-16T12:24:22.875Z,25.90
2022-09-16T12:26:59.759Z,25.90
2022-09-16T12:29:34.146Z,25.90
2022-09-16T12:32:08.502Z,25.90
2022-09-16T12:34:36.623Z,25.90
2022-09-16T12:37:08.085Z,25.90
2022-09-16T12:39:36.090Z,26.00
2022-09-16T12:42:35.927Z,26.00
2022-09-16T12:45:16.017Z,26.00
2022-09-16T12:47:53.139Z,26.00
2022-09-16T12:50:24.041Z,26.00
2022-09-16T12:52:51.643Z,26.00
2022-09-16T12:55:31.623Z,26.00
2022-09-16T12:58:11.579Z,26.00
2022-09-16T13:00:58.353Z,26.10
2022-09-16T13:03:28.391Z,26.20
2022-09-16T13:05:58.187Z,26.20
2022-09-16T13:08:31.180Z,26.30
2022-09-16T13:13:53.871Z,26.30
2022-09-16T13:16:37.445Z,26.30
2022-09-16T13:19:10.304Z,26.30
2022-09-16T13:21:44.833Z,26.30
2022-09-16T13:24:25.610Z,26.30
2022-09-16T13:26:53.600Z,26.30
2022-09-16T13:29:40.989Z,26.30
2022-09-16T13:32:25.463Z,26.40
2022-09-16T13:35:21.790Z,26.40
2022-09-16T13:37:54.948Z,26.40
2022-09-16T13:40:22.998Z,26.40
2022-09-16T13:42:50.826Z,26.50
2022-09-16T13:45:34.949Z,26.50
2022-09-16T13:48:06.755Z,26.50
2022-09-16T13:50:34.543Z,26.50
2022-09-16T13:53:20.736Z,26.50
2022-09-16T13:55:49.622Z,26.50
2022-09-16T13:58:35.942Z,26.60
2022-09-16T14:01:28.257Z,26.60
2022-09-16T14:04:05.075Z,26.60
2022-09-16T14:06:56.003Z,26.60
2022-09-16T14:09:24.834Z,26.60
2022-09-16T14:12:07.575Z,26.60
2022-09-16T14:14:47.037Z,26.70
2022-09-16T14:17:17.942Z,26.70
2022-09-16T14:19:47.127Z,26.70
2022-09-16T14:22:17.162Z,26.70
2022-09-16T14:24:45.928Z,26.70
2022-09-16T14:27:21.563Z,26.70
2022-09-16T14:29:57.011Z,26.70
2022-09-16T14:32:27.200Z,26.80
2022-09-16T14:34:57.041Z,26.80
2022-09-16T14:37:28.778Z,26.80
2022-09-16T14:40:02.174Z,26.80
2022-09-16T14:42:30.603Z,26.80
2022-09-16T14:44:58.964Z,26.80
2022-09-16T14:47:50.065Z,26.80
2022-09-16T14:50:19.347Z,26.80
2022-09-16T14:52:54.530Z,26.90
2022-09-16T14:55:23.458Z,26.90
2022-09-16T14:57:51.279Z,26.90
2022-09-16T15:00:19.823Z,26.90
2022-09-16T15:02:53.794Z,26.90
2022-09-16T15:05:41.670Z,26.90
2022-09-16T15:08:30.726Z,26.90
2022-09-16T15:10:59.384Z,26.90
2022-09-16T15:13:30.177Z,26.90
2022-09-16T15:15:57.806Z,26.90
2022-09-16T15:18:25.755Z,27.00
2022-09-16T15:21:03.407Z,26.90
2022-09-16T15:23:31.889Z,26.90
2022-09-16T15:26:10.698Z,27.00
2022-09-16T15:28:38.408Z,27.00
2022-09-16T15:31:08.243Z,27.00
2022-09-16T15:33:37.361Z,27.00
2022-09-16T15:36:05.211Z,27.10
2022-09-16T15:38:33.349Z,27.00
2022-09-16T15:41:05.195Z,27.00
2022-09-16T15:43:40.109Z,27.10
2022-09-16T15:46:16.431Z,27.10
2022-09-16T15:48:50.071Z,27.10
2022-09-16T15:51:28.915Z,27.10
2022-09-16T15:53:59.735Z,27.10
2022-09-16T15:56:27.582Z,27.20
2022-09-16T15:58:57.749Z,27.20
2022-09-16T16:01:35.673Z,27.20
2022-09-16T16:04:05.434Z,27.20
2022-09-16T16:06:47.209Z,27.20
2022-09-16T16:09:27.706Z,27.20
2022-09-16T16:11:58.145Z,27.20
2022-09-16T16:14:32.794Z,27.20
2022-09-16T16:17:13.954Z,27.20
2022-09-16T16:19:43.173Z,27.20
2022-09-16T16:22:11.934Z,27.20
2022-09-16T16:24:40.280Z,27.20
2022-09-16T16:27:08.890Z,27.20
2022-09-16T16:29:36.669Z,27.20
2022-09-16T16:32:11.305Z,27.20
2022-09-16T16:34:41.470Z,27.20
2022-09-16T16:37:19.183Z,27.20
2022-09-16T16:39:57.051Z,27.30
2022-09-16T16:42:25.117Z,27.20
2022-09-16T16:44:52.845Z,27.20
2022-09-16T16:47:21.210Z,27.30
2022-09-16T16:49:51.535Z,27.30
2022-09-16T16:52:19.235Z,27.30
2022-09-16T16:54:47.689Z,27.30
2022-09-16T16:57:15.352Z,27.30
2022-09-16T16:59:42.942Z,27.30
2022-09-16T17:02:11.982Z,27.30
2022-09-16T17:04:39.979Z,27.30
2022-09-16T17:07:25.099Z,27.30
2022-09-16T17:09:54.176Z,27.30
2022-09-16T17:12:21.988Z,27.30
2022-09-16T17:14:49.620Z,27.30
2022-09-16T17:17:17.507Z,27.30
2022-09-16T17:19:45.130Z,27.30
2022-09-16T17:22:12.777Z,27.30
2022-09-16T17:24:41.058Z,27.30
2022-09-16T17:27:08.639Z,27.30
2022-09-16T17:29:36.272Z,27.30
2022-09-16T17:32:04.405Z,27.30
2022-09-16T17:34:32.921Z,27.30
2022-09-16T17:37:00.611Z,27.30
2022-09-16T17:39:29.066Z,27.30
2022-09-16T17:41:57.652Z,27.30
2022-09-16T17:44:25.263Z,27.30
2022-09-16T17:46:53.692Z,27.30
2022-09-16T17:49:22.353Z,27.30
2022-09-16T17:51:50.697Z,27.30
2022-09-16T17:54:18.918Z,27.30
2022-09-16T17:56:46.957Z,27.30
2022-09-16T17:59:16.258Z,27.30
2022-09-16T18:01:44.516Z,27.30
2022-09-16T18:04:12.882Z,27.30
2022-09-16T18:06:44.667Z,27.30
2022-09-16T18:09:13.465Z,27.30
2022-09-16T18:11:41.372Z,27.30
2022-09-16T18:14:11.229Z,27.30
2022-09-16T18:16:39.860Z,27.30
2022-09-16T18:19:07.822Z,27.30
2022-09-16T18:21:36.065Z,27.20
2022-09-16T18:24:04.816Z,27.10
2022-09-16T18:26:32.699Z,27.10
2022-09-16T18:29:10.351Z,27.00
2022-09-16T18:31:40.063Z,26.90
2022-09-16T18:34:08.061Z,26.90
2022-09-16T18:36:37.108Z,26.80
2022-09-16T18:39:06.161Z,26.80
2022-09-16T18:41:37.680Z,26.70
2022-09-16T18:44:11.079Z,26.60
2022-09-16T18:46:39.127Z,26.60
2022-09-16T18:49:07.201Z,26.60
2022-09-16T18:51:36.881Z,26.50
2022-09-16T18:54:06.515Z,26.50
2022-09-16T18:56:35.960Z,26.50
2022-09-16T19:01:52.345Z,26.40
2022-09-16T19:04:21.634Z,26.40
2022-09-16T19:06:52.105Z,26.40
2022-09-16T19:09:21.979Z,26.30
2022-09-16T19:11:49.964Z,26.30
2022-09-16T19:14:17.613Z,26.30
2022-09-16T19:16:45.923Z,26.30
2022-09-16T19:19:14.159Z,26.30
2022-09-16T19:21:42.489Z,26.30
2022-09-16T19:24:14.800Z,26.40
2022-09-16T19:26:43.399Z,26.30
2022-09-16T19:29:11.951Z,26.30
2022-09-16T19:31:40.605Z,26.40
2022-09-16T19:34:08.507Z,26.30
2022-09-16T19:36:36.932Z,26.40
2022-09-16T19:39:05.389Z,26.40
2022-09-16T19:41:34.808Z,26.30
2022-09-16T19:44:04.189Z,26.40
2022-09-16T19:46:33.842Z,26.40
2022-09-16T19:49:01.855Z,26.40
2022-09-16T19:51:29.596Z,26.40
2022-09-16T19:53:58.663Z,26.30
2022-09-16T19:56:28.213Z,26.40
2022-09-16T19:58:56.250Z,26.40
2022-09-16T20:01:25.167Z,26.40
2022-09-16T20:03:53.395Z,26.40
2022-09-16T20:06:22.593Z,26.40
2022-09-16T20:08:53.029Z,26.40
2022-09-16T20:11:22.184Z,26.40
2022-09-16T20:13:53.298Z,26.40
2022-09-16T20:16:22.851Z,26.30
2022-09-16T20:18:50.570Z,26.40
2022-09-16T20:21:19.605Z,26.40
2022-09-16T20:23:48.323Z,26.40
2022-09-16T20:26:19.934Z,26.40
2022-09-16T20:28:51.758Z,26.40
2022-09-16T20:31:20.846Z,26.40
2022-09-16T20:33:48.880Z,26.40
2022-09-16T20:36:17.506Z,26.40
2022-09-16T20:38:45.506Z,26.40
2022-09-16T20:41:15.111Z,26.40
2022-09-16T20:43:42.967Z,26.40
2022-09-16T20:46:17.802Z,26.40
2022-09-16T20:48:46.125Z,26.40
2022-09-16T20:51:15.291Z,26.40
2022-09-16T20:53:43.325Z,26.40
2022-09-16T20:56:12.860Z,26.40
2022-09-16T20:58:41.375Z,26.30
2022-09-16T21:01:11.899Z,26.40
2022-09-16T21:03:39.892Z,26.40
2022-09-16T21:06:08.820Z,26.50
2022-09-16T21:08:40.171Z,26.50
2022-09-16T21:11:11.845Z,26.50
2022-09-16T21:13:41.619Z,26.60
2022-09-16T21:16:11.386Z,26.60
2022-09-16T21:18:39.519Z,26.60
2022-09-16T21:21:08.505Z,26.70
2022-09-16T21:23:37.208Z,26.70
2022-09-16T21:26:05.682Z,26.70
2022-09-16T21:28:34.715Z,26.70
2022-09-16T21:31:03.382Z,26.70
2022-09-16T21:33:31.479Z,26.70
2022-09-16T21:35:59.217Z,26.70
2022-09-16T21:38:28.341Z,26.70
2022-09-16T21:40:57.220Z,26.80
2022-09-16T21:43:27.629Z,26.70
2022-09-16T21:45:55.654Z,26.70
2022-09-16T21:48:24.089Z,26.70
2022-09-16T21:50:53.953Z,26.70
2022-09-16T21:53:21.968Z,26.70
2022-09-16T21:55:49.654Z,26.70
2022-09-16T21:58:17.272Z,26.70
2022-09-16T22:00:45.521Z,26.70
2022-09-16T22:03:13.452Z,26.70
2022-09-16T22:05:41.089Z,26.70
2022-09-16T22:08:08.707Z,26.70
2022-09-16T22:10:36.640Z,26.70
2022-09-16T22:13:04.706Z,26.70
2022-09-16T22:15:32.596Z,26.70
2022-09-16T22:18:02.534Z,26.70
2022-09-16T22:20:30.268Z,26.70
2022-09-16T22:22:57.949Z,26.70
2022-09-16T22:25:25.796Z,26.60
2022-09-16T22:27:53.543Z,26.70
2022-09-16T22:30:21.153Z,26.60
2022-09-16T22:32:49.161Z,26.60
2022-09-16T22:35:16.932Z,26.70
2022-09-16T22:37:44.472Z,26.70
2022-09-16T22:40:12.491Z,26.70
2022-09-16T22:42:40.332Z,26.60
2022-09-16T22:45:08.253Z,26.60
2022-09-16T22:47:36.761Z,26.60
2022-09-16T22:50:05.085Z,26.70
2022-09-16T22:52:32.832Z,26.60
2022-09-16T22:55:00.923Z,26.60
2022-09-16T22:57:29.360Z,26.70
2022-09-16T22:59:56.904Z,26.60
2022-09-16T23:02:25.086Z,26.60
2022-09-16T23:04:54.299Z,26.60
2022-09-16T23:07:21.914Z,26.60
2022-09-16T23:09:49.870Z,26.60
2022-09-16T23:12:17.464Z,26.60
2022-09-16T23:14:44.981Z,26.60
2022-09-16T23:17:12.881Z,26.50
2022-09-16T23:19:40.974Z,26.60
2022-09-16T23:22:09.265Z,26.50
2022-09-16T23:24:37.741Z,26.50
2022-09-16T23:27:06.284Z,26.50
2022-09-16T23:29:33.786Z,26.50
2022-09-16T23:32:03.532Z,26.40
2022-09-16T23:34:31.213Z,26.50
2022-09-16T23:36:58.794Z,26.40
2022-09-16T23:39:26.675Z,26.50
2022-09-16T23:41:54.398Z,26.40
2022-09-16T23:44:22.780Z,26.40
2022-09-16T23:46:50.854Z,26.40
2022-09-16T23:49:20.532Z,26.40
2022-09-16T23:51:48.164Z,26.50
2022-09-16T23:54:16.564Z,26.40
2022-09-16T23:56:44.895Z,26.50
2022-09-16T23:59:12.966Z,26.50
